• Join FlightAware (Why Join?)
  • Login
  • US Flag 
11:48PM EDT


 

Airport Tracker/Info


-or-


 

Live Flight TrackerFlight Track Log ✈ DAL1236 ✈ 13-May-2013 ✈ KATL - KPNS

Flight Track Log - Related Links

Times and Time Zones

All times are in EDT time to prevent confusion due to time zone crossing. See the DAL1236 flight status page for this flight to view local times or setup timezone preferences in your user account.

Time Position Orientation Groundspeed Altitude Reporting Facility
EDT Latitude Longitude Course Direction KTS MPH feet Rate Location/Type
06:05PM 33.6347 -84.4806 203° Southwest 446 513 2,400  Level Atlanta Center
06:06PM 33.6344 -84.5653 270° West 369 425 4,700 2,520 Climbing Atlanta Center
06:07PM 33.5986 -84.6325 237° Southwest 286 329 7,500 2,520 Climbing Atlanta Center
06:08PM 33.3741 -84.3031 202° Southwest  Level FlightAware Approximate
06:08PM 33.5028 -84.6192 173° South 324 373 9,800  Level Atlanta Center
06:09PM 33.2609 -84.3573 202° Southwest  Level FlightAware Approximate
06:09PM 33.4172 -84.5989 169° South 357 411 10,700  Level Atlanta Center
06:10PM 33.1476 -84.4114 202° Southwest  Level FlightAware Approximate
06:10PM 33.3108 -84.5806 172° South 378 435 13,400  Level Atlanta Center
06:11PM 33.0333 -84.4584 203° Southwest  Level FlightAware Approximate
06:11PM 33.2003 -84.5725 177° South 395 455 15,200  Level Atlanta Center
06:12PM 33.0833 -84.5719 180° South 411 473 17,400 1,860 Climbing Atlanta Center
06:13PM 32.9750 -84.5736 181° South 427 491 19,000 1,500 Climbing Atlanta Center
06:14PM 32.8578 -84.6225 199° South 438 504 20,500 1,980 Climbing Atlanta Center
06:15PM 32.7572 -84.7131 217° Southwest 428 493 23,000 2,100 Climbing Atlanta Center
06:16PM 32.6772 -84.8161 227° Southwest 420 483 24,700 1,500 Climbing Atlanta Center
06:17PM 32.5869 -84.9042 219° Southwest 426 490 26,000 1,320 Climbing Atlanta Center
06:18PM 32.5006 -85.0019 224° Southwest 441 507 27,400 960 Climbing Atlanta Center
06:19PM 32.3975 -85.0967 218° Southwest 449 517 28,000 300 Climbing Atlanta Center
06:20PM 32.3069 -85.1914 221° Southwest 449 517 28,000  Level Atlanta Center
06:21PM 32.2100 -85.2908 221° Southwest 449 517 28,000  Level Atlanta Center
06:22PM 32.1169 -85.3875 221° Southwest 449 517 28,000 -120 Level Atlanta Center
06:23PM 32.0264 -85.4794 221° Southwest 449 517 27,800 -1,320 Descending Atlanta Center
06:25PM 31.8544 -85.6564 221° Southwest 429 494 24,200 -1,320 Descending Jacksonville Center
06:26PM 31.7650 -85.7467 221° Southwest 429 494 24,000 -120 Descending Jacksonville Center
06:27PM 31.6731 -85.8364 220° Southwest 429 494 24,000 -180 Level Jacksonville Center
06:28PM 31.5853 -85.9264 221° Southwest 435 501 23,700 -600 Descending Jacksonville Center
06:29PM 31.4956 -86.0186 221° Southwest 435 501 22,800 -900 Descending Jacksonville Center
06:30PM 31.4036 -86.1056 219° Southwest 435 501 21,900 -900 Descending Jacksonville Center
06:31PM 31.3175 -86.1972 222° Southwest 429 494 21,100 -1,020 Descending Jacksonville Center
06:32PM 31.2481 -86.2994 232° Southwest 415 478 19,900 -1,020 Descending Jacksonville Center
06:33PM 31.1844 -86.4086 236° Southwest 410 472 19,100 -1,320 Descending Jacksonville Center
06:34PM 31.1233 -86.5058 234° Southwest 397 457 17,300 -1,500 Descending Jacksonville Center
06:35PM 31.0622 -86.6031 234° Southwest 392 451 16,100 -600 Descending Jacksonville Center
06:36PM 31.0028 -86.7050 236° Southwest 387 445 16,100 -180 Level Jacksonville Center
06:37PM 30.9547 -86.7781 233° Southwest 348 400 15,900 -120 Descending Jacksonville Center
06:37PM 30.9458 -86.7947 238° Southwest 376 433 16,000 -1,320 Climbing Jacksonville Center
06:39PM 30.8403 -86.8942 219° Southwest 324 373 13,700 -1,620 Descending Jacksonville Center
06:39PM 30.8061 -86.9194 212° Southwest 320 368 12,800 -1,440 Descending Jacksonville Center
06:40PM 30.7311 -86.9864 218° Southwest 320 368 11,400 -2,640 Descending Jacksonville Center
06:41PM 30.6542 -87.0408 211° Southwest 295 339 7,300 -3,060 Descending Jacksonville Center
06:42PM 30.6025 -87.0822 215° Southwest 307 353 5,300 -1,740 Descending Jacksonville Center
06:43PM 30.5367 -87.1225 208° Southwest 291 335 4,100 -1,260 Descending Jacksonville Center
06:44PM 30.4989 -87.1258 184° South 228 262 3,500 -1,140 Descending Jacksonville Center
06:44PM 30.4717 -87.1247 178° South 249 287 3,000 -480 Descending Jacksonville Center
06:45PM 30.4322 -87.1228 178° South 197 227 3,000 -240 Level Jacksonville Center
06:45PM 30.4158 -87.1147 157° South 223 257 2,800 -480 Descending Jacksonville Center